createdAt,value
2022-07-28T00:00:26.139Z,6.10
2022-07-28T00:05:30.982Z,6.30
2022-07-28T00:10:34.519Z,5.55
2022-07-28T00:15:37.806Z,5.53
2022-07-28T00:20:42.449Z,5.07
2022-07-28T00:25:45.779Z,5.13
2022-07-28T00:30:49.209Z,5.03
2022-07-28T00:35:53.932Z,5.40
2022-07-28T00:41:12.983Z,5.10
2022-07-28T00:46:19.577Z,5.30
2022-07-28T00:51:26.843Z,5.13
2022-07-28T00:56:30.228Z,5.13
2022-07-28T01:01:33.547Z,4.70
2022-07-28T01:06:50.246Z,5.10
2022-07-28T01:12:02.552Z,4.57
2022-07-28T01:17:11.924Z,4.85
2022-07-28T01:22:22.374Z,4.80
2022-07-28T01:27:39.101Z,4.70
2022-07-28T01:32:49.657Z,5.05
2022-07-28T01:37:58.813Z,5.10
2022-07-28T01:43:07.081Z,4.70
2022-07-28T01:48:15.625Z,5.57
2022-07-28T01:53:20.304Z,4.80
2022-07-28T01:58:26.825Z,5.03
2022-07-28T02:03:32.762Z,5.25
2022-07-28T02:08:38.040Z,5.63
2022-07-28T02:13:42.891Z,5.30
2022-07-28T02:18:49.129Z,5.10
2022-07-28T02:23:53.452Z,5.10
2022-07-28T02:29:00.342Z,4.85
2022-07-28T02:34:07.110Z,5.77
2022-07-28T02:39:19.642Z,5.70
2022-07-28T02:44:28.410Z,5.88
2022-07-28T02:49:36.454Z,5.85
2022-07-28T02:54:42.156Z,6.70
2022-07-28T02:59:46.135Z,6.53
2022-07-28T03:05:00.847Z,7.73
2022-07-28T03:10:05.750Z,7.30
2022-07-28T03:15:10.371Z,7.80
2022-07-28T03:20:15.966Z,8.03
2022-07-28T03:25:24.482Z,11.13
2022-07-28T03:30:30.459Z,8.90
2022-07-28T03:35:40.166Z,6.80
2022-07-28T03:40:46.145Z,6.43
2022-07-28T03:45:50.508Z,6.43
2022-07-28T03:50:55.347Z,6.35
2022-07-28T03:55:58.813Z,5.87
2022-07-28T04:01:02.210Z,6.47
2022-07-28T04:06:07.133Z,6.83
2022-07-28T04:11:10.503Z,6.50
2022-07-28T04:16:13.833Z,6.20
2022-07-28T04:21:18.639Z,7.40
2022-07-28T04:26:21.949Z,7.63
2022-07-28T04:31:25.265Z,6.75
2022-07-28T04:36:30.294Z,6.60
2022-07-28T04:41:35.035Z,6.63
2022-07-28T04:46:38.347Z,6.38
2022-07-28T04:51:45.438Z,6.55
2022-07-28T04:56:48.822Z,7.00
2022-07-28T05:01:52.169Z,6.88
2022-07-28T05:06:56.908Z,6.60
2022-07-28T05:12:00.256Z,6.73
2022-07-28T05:17:03.606Z,7.22
2022-07-28T05:22:08.398Z,7.10
2022-07-28T05:27:12.816Z,6.65
2022-07-28T05:32:18.057Z,6.38
2022-07-28T05:37:22.982Z,6.45
2022-07-28T05:42:26.658Z,6.57
2022-07-28T05:47:29.964Z,7.00
2022-07-28T05:52:34.616Z,6.40
2022-07-28T05:57:38.543Z,6.37
2022-07-28T06:02:42.512Z,6.35
2022-07-28T06:07:48.259Z,6.13
2022-07-28T06:12:53.641Z,6.05
2022-07-28T06:17:56.905Z,6.67
2022-07-28T06:23:01.604Z,6.38
2022-07-28T06:28:05.515Z,6.20
2022-07-28T06:33:11.694Z,5.75
2022-07-28T06:38:20.346Z,5.70
2022-07-28T06:43:23.817Z,6.00
2022-07-28T06:48:29.263Z,5.65
2022-07-28T06:53:34.611Z,5.70
2022-07-28T06:58:38.173Z,5.73
2022-07-28T07:03:42.450Z,5.75
2022-07-28T07:08:48.498Z,5.35
2022-07-28T07:13:52.795Z,5.35
2022-07-28T07:18:56.139Z,4.90
2022-07-28T07:24:00.805Z,5.22
2022-07-28T07:29:04.126Z,5.37
2022-07-28T07:34:07.838Z,5.40
2022-07-28T07:39:12.464Z,5.20
2022-07-28T07:44:15.981Z,5.18
2022-07-28T07:49:19.689Z,4.28
2022-07-28T07:54:24.373Z,4.72
2022-07-28T07:59:27.663Z,4.55
2022-07-28T08:04:32.231Z,5.37
2022-07-28T08:09:42.477Z,4.90
2022-07-28T08:14:47.788Z,5.00
2022-07-28T08:19:51.636Z,4.43
2022-07-28T08:24:56.417Z,4.13
2022-07-28T08:29:59.698Z,4.38
2022-07-28T08:35:30.232Z,3.83
2022-07-28T08:40:29.452Z,3.70
2022-07-28T08:45:37.104Z,3.80
2022-07-28T08:50:40.978Z,3.67
2022-07-28T08:55:46.006Z,3.75
2022-07-28T09:00:49.725Z,3.65
2022-07-28T09:05:53.838Z,4.00
2022-07-28T09:10:58.758Z,3.60
2022-07-28T09:16:02.292Z,3.80
2022-07-28T09:21:05.647Z,3.90
2022-07-28T09:26:12.167Z,3.58
2022-07-28T09:31:16.857Z,3.63
2022-07-28T09:36:20.320Z,3.13
2022-07-28T09:41:25.097Z,2.90
2022-07-28T09:46:30.659Z,3.05
2022-07-28T09:51:35.687Z,2.83
2022-07-28T09:56:43.321Z,3.17
2022-07-28T10:01:58.350Z,3.10
2022-07-28T10:07:05.715Z,3.30
2022-07-28T10:12:21.619Z,3.10
2022-07-28T10:17:32.975Z,3.40
2022-07-28T10:22:43.067Z,2.97
2022-07-28T10:27:50.596Z,3.30
2022-07-28T10:32:55.727Z,3.00
2022-07-28T10:38:01.569Z,2.80
2022-07-28T10:43:07.354Z,3.00
2022-07-28T10:48:12.999Z,2.60
2022-07-28T10:53:27.455Z,2.95
2022-07-28T10:58:44.106Z,3.20
2022-07-28T11:03:49.582Z,2.88
2022-07-28T11:08:53.679Z,2.85
2022-07-28T11:14:34.047Z,3.10
2022-07-28T11:25:23.031Z,3.20
2022-07-28T11:30:54.277Z,3.10
2022-07-28T11:36:00.321Z,3.20
2022-07-28T11:41:30.085Z,2.90
2022-07-28T11:46:38.498Z,3.00
2022-07-28T11:51:51.262Z,2.83
2022-07-28T11:56:59.320Z,2.90
2022-07-28T12:02:04.001Z,2.80
2022-07-28T12:07:10.463Z,2.25
2022-07-28T12:12:13.904Z,2.43
2022-07-28T12:17:18.670Z,2.08
2022-07-28T12:22:22.071Z,1.80
2022-07-28T12:27:32.068Z,2.50
2022-07-28T12:32:37.477Z,2.33
2022-07-28T12:37:42.214Z,1.95
2022-07-28T12:42:46.246Z,2.07
2022-07-28T12:47:56.829Z,2.17
2022-07-28T12:53:05.076Z,2.00
2022-07-28T12:58:09.282Z,2.30
2022-07-28T13:03:25.293Z,2.50
2022-07-28T13:08:29.351Z,2.27
2022-07-28T13:13:45.507Z,2.30
2022-07-28T13:18:53.518Z,2.30
2022-07-28T13:23:57.936Z,2.55
2022-07-28T13:29:01.762Z,2.33
2022-07-28T13:34:07.465Z,2.00
2022-07-28T13:39:11.616Z,2.00
2022-07-28T13:44:15.196Z,2.10
2022-07-28T13:49:22.617Z,2.50
2022-07-28T13:54:26.025Z,2.28
2022-07-28T13:59:29.381Z,2.47
2022-07-28T14:04:34.297Z,2.05
2022-07-28T14:09:39.555Z,2.10
2022-07-28T14:14:47.861Z,2.17
2022-07-28T14:19:53.258Z,2.00
2022-07-28T14:24:56.802Z,2.17
2022-07-28T14:30:03.421Z,2.53
2022-07-28T14:35:10.046Z,1.85
2022-07-28T14:40:13.962Z,1.90
2022-07-28T14:45:17.733Z,1.83
2022-07-28T14:50:22.449Z,1.80
2022-07-28T14:55:25.857Z,1.98
2022-07-28T15:00:29.406Z,2.08
2022-07-28T15:05:34.123Z,2.00
2022-07-28T15:10:38.134Z,3.40
2022-07-28T15:15:44.700Z,2.10
2022-07-28T15:20:50.418Z,4.07
2022-07-28T15:25:56.219Z,2.80
2022-07-28T15:31:00.183Z,2.40
2022-07-28T15:36:05.939Z,2.03
2022-07-28T15:41:12.838Z,1.83
2022-07-28T15:46:17.591Z,2.20
2022-07-28T15:51:25.889Z,1.92
2022-07-28T15:56:30.007Z,1.80
2022-07-28T16:01:34.430Z,1.73
2022-07-28T16:06:57.209Z,1.90
2022-07-28T16:12:00.640Z,1.83
2022-07-28T16:17:04.085Z,1.98
2022-07-28T16:22:08.784Z,1.90
2022-07-28T16:27:12.097Z,1.87
2022-07-28T16:32:15.435Z,1.90
2022-07-28T16:37:20.160Z,2.10
2022-07-28T16:42:23.470Z,1.90
2022-07-28T16:47:26.804Z,1.73
2022-07-28T16:52:31.446Z,1.70
2022-07-28T16:57:34.784Z,1.90
2022-07-28T17:02:38.068Z,1.75
2022-07-28T17:07:45.838Z,1.90
2022-07-28T17:12:50.208Z,1.70
2022-07-28T17:17:54.627Z,1.80
2022-07-28T17:22:59.875Z,1.90
2022-07-28T17:28:03.783Z,1.80
2022-07-28T17:33:08.958Z,1.90
2022-07-28T17:38:15.928Z,1.93
2022-07-28T17:43:20.308Z,1.83
2022-07-28T17:48:24.272Z,1.90
2022-07-28T17:53:30.374Z,2.20
2022-07-28T17:58:33.658Z,2.10
2022-07-28T18:03:57.119Z,2.10
2022-07-28T18:09:06.270Z,1.95
2022-07-28T18:14:10.915Z,2.23
2022-07-28T18:19:14.204Z,2.28
2022-07-28T18:24:21.897Z,2.40
2022-07-28T18:29:26.171Z,2.05
2022-07-28T18:34:45.432Z,2.10
2022-07-28T18:39:50.174Z,2.03
2022-07-28T18:44:53.502Z,1.92
2022-07-28T18:49:56.829Z,2.17
2022-07-28T18:55:03.226Z,2.13
2022-07-28T19:00:09.332Z,2.20
2022-07-28T19:05:12.840Z,2.20
2022-07-28T19:10:17.553Z,2.35
2022-07-28T19:15:20.911Z,1.95
2022-07-28T19:20:24.218Z,2.15
2022-07-28T19:25:30.549Z,2.47
2022-07-28T19:30:34.252Z,2.10
2022-07-28T19:35:37.700Z,2.17
2022-07-28T19:40:43.317Z,2.22
2022-07-28T19:45:46.834Z,2.45
2022-07-28T19:50:51.119Z,2.20
2022-07-28T19:55:57.083Z,2.30
2022-07-28T20:01:05.490Z,2.30
2022-07-28T20:06:09.910Z,2.65
2022-07-28T20:11:14.765Z,2.50
2022-07-28T20:16:18.684Z,2.40
2022-07-28T20:21:24.108Z,2.53
2022-07-28T20:26:29.222Z,2.58
2022-07-28T20:31:33.735Z,2.50
2022-07-28T20:36:37.999Z,2.40
2022-07-28T20:41:42.691Z,2.55
2022-07-28T20:46:47.238Z,2.60
2022-07-28T20:51:51.790Z,2.80
2022-07-28T20:56:56.751Z,2.70
2022-07-28T21:02:00.220Z,2.90
2022-07-28T21:07:04.120Z,2.53
2022-07-28T21:12:09.894Z,3.03
2022-07-28T21:17:13.188Z,3.15
2022-07-28T21:22:16.587Z,2.97
2022-07-28T21:27:21.547Z,2.93
2022-07-28T21:32:24.848Z,3.00
2022-07-28T21:37:28.101Z,3.00
2022-07-28T21:42:33.337Z,3.10
2022-07-28T21:47:36.757Z,3.00
2022-07-28T21:52:40.138Z,2.83
2022-07-28T21:57:45.850Z,3.00
2022-07-28T22:02:49.445Z,2.90
2022-07-28T22:07:52.880Z,2.70
2022-07-28T22:12:57.675Z,2.60
2022-07-28T22:18:00.980Z,2.77
2022-07-28T22:23:04.425Z,2.97
2022-07-28T22:28:29.695Z,2.70
2022-07-28T22:33:33.488Z,2.80
2022-07-28T22:38:37.038Z,2.70
2022-07-28T22:43:41.722Z,2.95
2022-07-28T22:48:45.238Z,2.60
2022-07-28T22:53:48.606Z,2.45
2022-07-28T22:58:53.254Z,2.63
2022-07-28T23:03:56.627Z,2.60
2022-07-28T23:09:00.474Z,2.55
2022-07-28T23:14:05.213Z,2.55
2022-07-28T23:19:08.551Z,2.70
2022-07-28T23:24:12.012Z,2.50
2022-07-28T23:29:16.762Z,2.60
2022-07-28T23:34:20.224Z,2.60
2022-07-28T23:39:23.504Z,2.78
2022-07-28T23:44:28.201Z,3.00
2022-07-28T23:49:31.513Z,2.50
2022-07-28T23:54:34.814Z,2.60
2022-07-28T23:59:39.540Z,2.85
